sensor_id;sensor_type;location;lat;lon;timestamp;temperature;humidity
7494;DHT22;3788;49.902;8.590;2022-08-30T00:01:57;18.50;60.50
7494;DHT22;3788;49.902;8.590;2022-08-30T00:04:23;18.40;60.60
7494;DHT22;3788;49.902;8.590;2022-08-30T00:06:51;18.40;60.70
7494;DHT22;3788;49.902;8.590;2022-08-30T00:09:17;18.40;60.80
7494;DHT22;3788;49.902;8.590;2022-08-30T00:11:44;18.30;60.80
7494;DHT22;3788;49.902;8.590;2022-08-30T00:14:11;18.30;60.90
7494;DHT22;3788;49.902;8.590;2022-08-30T00:16:37;18.30;60.90
7494;DHT22;3788;49.902;8.590;2022-08-30T00:19:06;18.30;61.10
7494;DHT22;3788;49.902;8.590;2022-08-30T00:21:32;18.30;61.10
7494;DHT22;3788;49.902;8.590;2022-08-30T00:23:59;18.30;61.20
7494;DHT22;3788;49.902;8.590;2022-08-30T00:26:25;18.20;61.30
7494;DHT22;3788;49.902;8.590;2022-08-30T00:28:52;18.20;61.40
7494;DHT22;3788;49.902;8.590;2022-08-30T00:31:19;18.20;61.50
7494;DHT22;3788;49.902;8.590;2022-08-30T00:33:46;18.20;61.60
7494;DHT22;3788;49.902;8.590;2022-08-30T00:36:14;18.20;61.80
7494;DHT22;3788;49.902;8.590;2022-08-30T00:38:40;18.10;61.80
7494;DHT22;3788;49.902;8.590;2022-08-30T00:41:07;18.10;61.80
7494;DHT22;3788;49.902;8.590;2022-08-30T00:43:35;18.10;61.90
7494;DHT22;3788;49.902;8.590;2022-08-30T00:46:02;18.10;62.00
7494;DHT22;3788;49.902;8.590;2022-08-30T00:48:32;18.10;62.10
7494;DHT22;3788;49.902;8.590;2022-08-30T00:51:04;18.00;62.10
7494;DHT22;3788;49.902;8.590;2022-08-30T00:53:37;18.00;62.10
7494;DHT22;3788;49.902;8.590;2022-08-30T00:56:05;18.00;62.10
7494;DHT22;3788;49.902;8.590;2022-08-30T00:58:35;18.00;62.10
7494;DHT22;3788;49.902;8.590;2022-08-30T01:01:04;18.00;62.10
7494;DHT22;3788;49.902;8.590;2022-08-30T01:03:32;18.00;62.90
7494;DHT22;3788;49.902;8.590;2022-08-30T01:06:00;18.00;62.20
7494;DHT22;3788;49.902;8.590;2022-08-30T01:08:28;18.00;62.30
7494;DHT22;3788;49.902;8.590;2022-08-30T01:10:56;18.00;62.40
7494;DHT22;3788;49.902;8.590;2022-08-30T01:13:24;17.90;62.40
7494;DHT22;3788;49.902;8.590;2022-08-30T01:15:52;17.90;62.50
7494;DHT22;3788;49.902;8.590;2022-08-30T01:18:22;17.90;62.60
7494;DHT22;3788;49.902;8.590;2022-08-30T01:20:56;17.90;62.70
7494;DHT22;3788;49.902;8.590;2022-08-30T01:23:27;17.90;62.90
7494;DHT22;3788;49.902;8.590;2022-08-30T01:25:55;17.90;62.90
7494;DHT22;3788;49.902;8.590;2022-08-30T01:28:24;17.80;63.00
7494;DHT22;3788;49.902;8.590;2022-08-30T01:30:51;17.80;63.20
7494;DHT22;3788;49.902;8.590;2022-08-30T01:33:18;17.80;63.40
7494;DHT22;3788;49.902;8.590;2022-08-30T01:35:49;17.70;63.40
7494;DHT22;3788;49.902;8.590;2022-08-30T01:38:19;17.70;63.60
7494;DHT22;3788;49.902;8.590;2022-08-30T01:40:48;17.70;63.90
7494;DHT22;3788;49.902;8.590;2022-08-30T01:43:15;17.60;63.90
7494;DHT22;3788;49.902;8.590;2022-08-30T01:45:43;17.50;64.00
7494;DHT22;3788;49.902;8.590;2022-08-30T01:48:10;17.50;64.20
7494;DHT22;3788;49.902;8.590;2022-08-30T01:50:38;17.50;64.40
7494;DHT22;3788;49.902;8.590;2022-08-30T01:53:04;17.50;64.40
7494;DHT22;3788;49.902;8.590;2022-08-30T01:55:31;17.40;64.50
7494;DHT22;3788;49.902;8.590;2022-08-30T01:58:00;17.40;64.60
7494;DHT22;3788;49.902;8.590;2022-08-30T02:00:26;17.40;64.80
7494;DHT22;3788;49.902;8.590;2022-08-30T02:05:21;17.40;65.00
7494;DHT22;3788;49.902;8.590;2022-08-30T02:07:48;17.40;65.10
7494;DHT22;3788;49.902;8.590;2022-08-30T02:10:15;17.30;65.10
7494;DHT22;3788;49.902;8.590;2022-08-30T02:12:41;17.30;65.10
7494;DHT22;3788;49.902;8.590;2022-08-30T02:15:10;17.30;65.20
7494;DHT22;3788;49.902;8.590;2022-08-30T02:17:37;17.30;65.50
7494;DHT22;3788;49.902;8.590;2022-08-30T02:20:05;17.30;65.70
7494;DHT22;3788;49.902;8.590;2022-08-30T02:22:32;17.20;65.80
7494;DHT22;3788;49.902;8.590;2022-08-30T02:24:59;17.10;65.90
7494;DHT22;3788;49.902;8.590;2022-08-30T02:27:26;17.10;66.10
7494;DHT22;3788;49.902;8.590;2022-08-30T02:29:53;17.00;66.20
7494;DHT22;3788;49.902;8.590;2022-08-30T02:32:21;17.00;66.40
7494;DHT22;3788;49.902;8.590;2022-08-30T02:34:47;17.00;66.50
7494;DHT22;3788;49.902;8.590;2022-08-30T02:37:14;17.00;66.60
7494;DHT22;3788;49.902;8.590;2022-08-30T02:39:41;17.00;66.70
7494;DHT22;3788;49.902;8.590;2022-08-30T02:42:08;16.90;66.70
7494;DHT22;3788;49.902;8.590;2022-08-30T02:44:34;16.90;66.80
7494;DHT22;3788;49.902;8.590;2022-08-30T02:47:01;16.90;66.80
7494;DHT22;3788;49.902;8.590;2022-08-30T02:49:30;16.90;66.90
7494;DHT22;3788;49.902;8.590;2022-08-30T02:51:56;16.90;66.90
7494;DHT22;3788;49.902;8.590;2022-08-30T02:54:23;16.90;67.00
7494;DHT22;3788;49.902;8.590;2022-08-30T02:56:50;16.80;66.90
7494;DHT22;3788;49.902;8.590;2022-08-30T02:59:17;16.80;67.00
7494;DHT22;3788;49.902;8.590;2022-08-30T03:01:44;16.80;67.20
7494;DHT22;3788;49.902;8.590;2022-08-30T03:04:11;16.80;68.00
7494;DHT22;3788;49.902;8.590;2022-08-30T03:06:40;16.80;67.40
7494;DHT22;3788;49.902;8.590;2022-08-30T03:09:07;16.80;67.40
7494;DHT22;3788;49.902;8.590;2022-08-30T03:11:33;16.70;67.30
7494;DHT22;3788;49.902;8.590;2022-08-30T03:14:00;16.70;67.40
7494;DHT22;3788;49.902;8.590;2022-08-30T03:16:27;16.70;67.40
7494;DHT22;3788;49.902;8.590;2022-08-30T03:18:53;16.70;67.50
7494;DHT22;3788;49.902;8.590;2022-08-30T03:21:20;16.70;67.50
7494;DHT22;3788;49.902;8.590;2022-08-30T03:23:48;16.70;67.70
7494;DHT22;3788;49.902;8.590;2022-08-30T03:26:15;16.70;67.80
7494;DHT22;3788;49.902;8.590;2022-08-30T03:28:42;16.60;67.90
7494;DHT22;3788;49.902;8.590;2022-08-30T03:31:09;16.60;68.10
7494;DHT22;3788;49.902;8.590;2022-08-30T03:33:36;16.60;68.30
7494;DHT22;3788;49.902;8.590;2022-08-30T03:36:04;16.50;68.30
7494;DHT22;3788;49.902;8.590;2022-08-30T03:38:31;16.50;68.40
7494;DHT22;3788;49.902;8.590;2022-08-30T03:40:59;16.40;68.50
7494;DHT22;3788;49.902;8.590;2022-08-30T03:43:26;16.40;68.60
7494;DHT22;3788;49.902;8.590;2022-08-30T03:45:52;16.40;68.70
7494;DHT22;3788;49.902;8.590;2022-08-30T03:48:19;16.40;68.70
7494;DHT22;3788;49.902;8.590;2022-08-30T03:50:46;16.40;68.70
7494;DHT22;3788;49.902;8.590;2022-08-30T03:53:12;16.30;68.70
7494;DHT22;3788;49.902;8.590;2022-08-30T03:55:39;16.30;68.70
7494;DHT22;3788;49.902;8.590;2022-08-30T03:58:07;16.30;68.70
7494;DHT22;3788;49.902;8.590;2022-08-30T04:00:33;16.30;68.70
7494;DHT22;3788;49.902;8.590;2022-08-30T04:03:00;16.30;68.80
7494;DHT22;3788;49.902;8.590;2022-08-30T04:05:27;16.30;68.80
7494;DHT22;3788;49.902;8.590;2022-08-30T04:07:54;16.30;68.80
7494;DHT22;3788;49.902;8.590;2022-08-30T04:10:21;16.30;68.80
7494;DHT22;3788;49.902;8.590;2022-08-30T04:12:48;16.30;68.90
7494;DHT22;3788;49.902;8.590;2022-08-30T04:15:18;16.30;68.80
7494;DHT22;3788;49.902;8.590;2022-08-30T04:17:45;16.30;68.80
7494;DHT22;3788;49.902;8.590;2022-08-30T04:20:12;16.30;68.80
7494;DHT22;3788;49.902;8.590;2022-08-30T04:22:38;16.30;68.80
7494;DHT22;3788;49.902;8.590;2022-08-30T04:25:07;16.30;68.80
7494;DHT22;3788;49.902;8.590;2022-08-30T04:27:34;16.40;68.90
7494;DHT22;3788;49.902;8.590;2022-08-30T04:30:02;16.40;68.80
7494;DHT22;3788;49.902;8.590;2022-08-30T04:32:33;16.40;68.80
7494;DHT22;3788;49.902;8.590;2022-08-30T04:35:00;16.40;68.80
7494;DHT22;3788;49.902;8.590;2022-08-30T04:37:27;16.40;68.70
7494;DHT22;3788;49.902;8.590;2022-08-30T04:39:54;16.40;68.80
7494;DHT22;3788;49.902;8.590;2022-08-30T04:42:21;16.30;68.70
7494;DHT22;3788;49.902;8.590;2022-08-30T04:44:48;16.40;69.00
7494;DHT22;3788;49.902;8.590;2022-08-30T04:47:15;16.40;69.00
7494;DHT22;3788;49.902;8.590;2022-08-30T04:49:44;16.30;69.00
7494;DHT22;3788;49.902;8.590;2022-08-30T04:52:10;16.30;69.10
7494;DHT22;3788;49.902;8.590;2022-08-30T04:54:37;16.30;69.20
7494;DHT22;3788;49.902;8.590;2022-08-30T04:57:04;16.30;69.40
7494;DHT22;3788;49.902;8.590;2022-08-30T04:59:31;16.30;69.50
7494;DHT22;3788;49.902;8.590;2022-08-30T05:01:58;16.30;69.60
7494;DHT22;3788;49.902;8.590;2022-08-30T05:04:25;16.30;69.70
7494;DHT22;3788;49.902;8.590;2022-08-30T05:06:53;16.30;69.70
7494;DHT22;3788;49.902;8.590;2022-08-30T05:09:20;16.30;69.70
7494;DHT22;3788;49.902;8.590;2022-08-30T05:11:46;16.30;69.80
7494;DHT22;3788;49.902;8.590;2022-08-30T05:14:13;16.40;70.00
7494;DHT22;3788;49.902;8.590;2022-08-30T05:16:40;16.40;70.00
7494;DHT22;3788;49.902;8.590;2022-08-30T05:19:07;16.40;70.00
7494;DHT22;3788;49.902;8.590;2022-08-30T05:21:34;16.40;70.00
7494;DHT22;3788;49.902;8.590;2022-08-30T05:24:03;16.50;70.20
7494;DHT22;3788;49.902;8.590;2022-08-30T05:26:32;16.50;70.10
7494;DHT22;3788;49.902;8.590;2022-08-30T05:28:59;16.50;70.10
7494;DHT22;3788;49.902;8.590;2022-08-30T05:31:30;16.50;70.10
7494;DHT22;3788;49.902;8.590;2022-08-30T05:33:57;16.60;70.10
7494;DHT22;3788;49.902;8.590;2022-08-30T05:36:26;16.60;70.30
7494;DHT22;3788;49.902;8.590;2022-08-30T05:38:53;16.60;70.20
7494;DHT22;3788;49.902;8.590;2022-08-30T05:41:22;16.60;70.20
7494;DHT22;3788;49.902;8.590;2022-08-30T05:43:51;16.60;70.30
7494;DHT22;3788;49.902;8.590;2022-08-30T05:46:18;16.70;70.40
7494;DHT22;3788;49.902;8.590;2022-08-30T05:48:46;16.70;70.30
7494;DHT22;3788;49.902;8.590;2022-08-30T05:51:15;16.80;70.30
7494;DHT22;3788;49.902;8.590;2022-08-30T05:53:43;16.80;70.20
7494;DHT22;3788;49.902;8.590;2022-08-30T05:56:12;16.90;70.20
7494;DHT22;3788;49.902;8.590;2022-08-30T05:58:41;17.00;70.20
7494;DHT22;3788;49.902;8.590;2022-08-30T06:01:18;17.00;70.10
7494;DHT22;3788;49.902;8.590;2022-08-30T06:03:44;17.10;70.10
7494;DHT22;3788;49.902;8.590;2022-08-30T06:06:11;17.20;70.40
7494;DHT22;3788;49.902;8.590;2022-08-30T06:08:38;17.20;70.80
7494;DHT22;3788;49.902;8.590;2022-08-30T06:11:05;17.20;71.00
7494;DHT22;3788;49.902;8.590;2022-08-30T06:13:31;17.30;71.30
7494;DHT22;3788;49.902;8.590;2022-08-30T06:15:59;17.30;71.30
7494;DHT22;3788;49.902;8.590;2022-08-30T06:18:26;17.40;71.30
7494;DHT22;3788;49.902;8.590;2022-08-30T06:20:53;17.40;71.40
7494;DHT22;3788;49.902;8.590;2022-08-30T06:23:19;17.50;71.40
7494;DHT22;3788;49.902;8.590;2022-08-30T06:25:46;17.60;71.40
7494;DHT22;3788;49.902;8.590;2022-08-30T06:28:13;17.60;71.50
7494;DHT22;3788;49.902;8.590;2022-08-30T06:30:40;17.70;71.40
7494;DHT22;3788;49.902;8.590;2022-08-30T06:33:09;17.80;71.10
7494;DHT22;3788;49.902;8.590;2022-08-30T06:35:36;17.90;70.90
7494;DHT22;3788;49.902;8.590;2022-08-30T06:38:03;18.00;70.80
7494;DHT22;3788;49.902;8.590;2022-08-30T06:40:29;18.10;70.70
7494;DHT22;3788;49.902;8.590;2022-08-30T06:42:56;18.10;70.40
7494;DHT22;3788;49.902;8.590;2022-08-30T06:45:23;18.20;70.20
7494;DHT22;3788;49.902;8.590;2022-08-30T06:47:49;18.30;70.10
7494;DHT22;3788;49.902;8.590;2022-08-30T06:50:18;18.40;69.90
7494;DHT22;3788;49.902;8.590;2022-08-30T06:52:45;18.50;69.90
7494;DHT22;3788;49.902;8.590;2022-08-30T06:55:14;18.60;69.80
7494;DHT22;3788;49.902;8.590;2022-08-30T06:57:41;18.70;69.50
7494;DHT22;3788;49.902;8.590;2022-08-30T07:00:11;18.80;69.10
7494;DHT22;3788;49.902;8.590;2022-08-30T07:02:38;18.90;69.00
7494;DHT22;3788;49.902;8.590;2022-08-30T07:05:06;19.00;68.70
7494;DHT22;3788;49.902;8.590;2022-08-30T07:07:34;19.10;68.40
7494;DHT22;3788;49.902;8.590;2022-08-30T07:10:02;19.20;68.10
7494;DHT22;3788;49.902;8.590;2022-08-30T07:12:29;19.20;67.80
7494;DHT22;3788;49.902;8.590;2022-08-30T07:14:56;19.30;67.70
7494;DHT22;3788;49.902;8.590;2022-08-30T07:17:23;19.40;67.40
7494;DHT22;3788;49.902;8.590;2022-08-30T07:20:08;19.50;67.20
7494;DHT22;3788;49.902;8.590;2022-08-30T07:22:36;19.60;67.00
7494;DHT22;3788;49.902;8.590;2022-08-30T07:25:03;19.70;66.80
7494;DHT22;3788;49.902;8.590;2022-08-30T07:27:30;19.90;66.80
7494;DHT22;3788;49.902;8.590;2022-08-30T07:29:57;20.00;66.40
7494;DHT22;3788;49.902;8.590;2022-08-30T07:32:25;20.20;66.40
7494;DHT22;3788;49.902;8.590;2022-08-30T07:34:52;20.50;66.30
7494;DHT22;3788;49.902;8.590;2022-08-30T07:37:18;20.80;65.80
7494;DHT22;3788;49.902;8.590;2022-08-30T07:39:46;21.40;65.10
7494;DHT22;3788;49.902;8.590;2022-08-30T07:42:13;22.30;63.50
7494;DHT22;3788;49.902;8.590;2022-08-30T07:44:40;23.00;61.40
7494;DHT22;3788;49.902;8.590;2022-08-30T07:47:08;23.70;60.10
7494;DHT22;3788;49.902;8.590;2022-08-30T07:49:35;24.40;59.00
7494;DHT22;3788;49.902;8.590;2022-08-30T07:52:03;25.10;57.90
7494;DHT22;3788;49.902;8.590;2022-08-30T07:54:30;25.80;56.80
7494;DHT22;3788;49.902;8.590;2022-08-30T07:56:58;26.20;55.50
7494;DHT22;3788;49.902;8.590;2022-08-30T07:59:24;26.40;54.40
7494;DHT22;3788;49.902;8.590;2022-08-30T08:01:51;26.70;54.10
7494;DHT22;3788;49.902;8.590;2022-08-30T08:04:17;27.00;53.50
7494;DHT22;3788;49.902;8.590;2022-08-30T08:06:44;27.40;52.80
7494;DHT22;3788;49.902;8.590;2022-08-30T08:09:11;27.60;52.20
7494;DHT22;3788;49.902;8.590;2022-08-30T08:11:38;27.80;51.90
7494;DHT22;3788;49.902;8.590;2022-08-30T08:14:07;28.00;51.30
7494;DHT22;3788;49.902;8.590;2022-08-30T08:16:36;28.20;50.90
7494;DHT22;3788;49.902;8.590;2022-08-30T08:19:02;28.20;50.50
7494;DHT22;3788;49.902;8.590;2022-08-30T08:21:33;28.30;50.40
7494;DHT22;3788;49.902;8.590;2022-08-30T08:24:00;28.40;49.80
7494;DHT22;3788;49.902;8.590;2022-08-30T08:26:26;28.50;49.70
7494;DHT22;3788;49.902;8.590;2022-08-30T08:28:53;28.60;49.60
7494;DHT22;3788;49.902;8.590;2022-08-30T08:31:23;29.00;49.40
7494;DHT22;3788;49.902;8.590;2022-08-30T08:33:50;29.40;48.80
7494;DHT22;3788;49.902;8.590;2022-08-30T08:36:16;29.90;48.30
7494;DHT22;3788;49.902;8.590;2022-08-30T08:38:43;30.10;47.60
7494;DHT22;3788;49.902;8.590;2022-08-30T08:41:19;30.20;47.30
7494;DHT22;3788;49.902;8.590;2022-08-30T08:43:52;30.00;46.50
7494;DHT22;3788;49.902;8.590;2022-08-30T08:46:24;29.40;47.10
7494;DHT22;3788;49.902;8.590;2022-08-30T08:48:56;28.90;47.70
7494;DHT22;3788;49.902;8.590;2022-08-30T08:51:30;28.40;48.20
7494;DHT22;3788;49.902;8.590;2022-08-30T08:54:20;28.10;48.80
7494;DHT22;3788;49.902;8.590;2022-08-30T08:56:50;28.00;49.20
7494;DHT22;3788;49.902;8.590;2022-08-30T08:59:16;27.90;49.20
7494;DHT22;3788;49.902;8.590;2022-08-30T09:01:46;27.80;49.50
7494;DHT22;3788;49.902;8.590;2022-08-30T09:04:15;27.90;49.70
7494;DHT22;3788;49.902;8.590;2022-08-30T09:06:53;28.00;49.20
7494;DHT22;3788;49.902;8.590;2022-08-30T09:09:23;28.10;48.90
7494;DHT22;3788;49.902;8.590;2022-08-30T09:11:51;28.30;48.60
7494;DHT22;3788;49.902;8.590;2022-08-30T09:14:21;28.50;48.30
7494;DHT22;3788;49.902;8.590;2022-08-30T09:16:56;28.70;48.20
7494;DHT22;3788;49.902;8.590;2022-08-30T09:19:55;28.90;47.70
7494;DHT22;3788;49.902;8.590;2022-08-30T09:22:25;28.90;47.80
7494;DHT22;3788;49.902;8.590;2022-08-30T09:25:00;29.00;47.20
7494;DHT22;3788;49.902;8.590;2022-08-30T09:27:30;28.80;47.20
7494;DHT22;3788;49.902;8.590;2022-08-30T09:30:01;28.80;47.50
7494;DHT22;3788;49.902;8.590;2022-08-30T09:32:36;28.90;47.20
7494;DHT22;3788;49.902;8.590;2022-08-30T09:35:07;29.00;47.30
7494;DHT22;3788;49.902;8.590;2022-08-30T09:37:37;29.10;47.10
7494;DHT22;3788;49.902;8.590;2022-08-30T09:40:11;29.20;47.00
7494;DHT22;3788;49.902;8.590;2022-08-30T09:42:39;29.40;47.00
7494;DHT22;3788;49.902;8.590;2022-08-30T09:45:17;29.50;46.40
7494;DHT22;3788;49.902;8.590;2022-08-30T09:47:46;29.60;46.20
7494;DHT22;3788;49.902;8.590;2022-08-30T09:50:15;29.80;46.10
7494;DHT22;3788;49.902;8.590;2022-08-30T09:52:53;30.00;45.70
7494;DHT22;3788;49.902;8.590;2022-08-30T09:55:33;30.20;45.50
7494;DHT22;3788;49.902;8.590;2022-08-30T09:58:08;30.30;45.30
7494;DHT22;3788;49.902;8.590;2022-08-30T10:00:39;30.50;44.90
7494;DHT22;3788;49.902;8.590;2022-08-30T10:03:25;30.60;45.00
7494;DHT22;3788;49.902;8.590;2022-08-30T10:06:01;30.50;44.80
7494;DHT22;3788;49.902;8.590;2022-08-30T10:08:38;30.30;44.60
7494;DHT22;3788;49.902;8.590;2022-08-30T10:11:11;30.20;44.70
7494;DHT22;3788;49.902;8.590;2022-08-30T10:13:57;29.90;44.90
7494;DHT22;3788;49.902;8.590;2022-08-30T10:16:34;29.70;44.80
7494;DHT22;3788;49.902;8.590;2022-08-30T10:19:24;29.70;45.20
7494;DHT22;3788;49.902;8.590;2022-08-30T10:21:57;29.70;45.20
7494;DHT22;3788;49.902;8.590;2022-08-30T10:24:30;29.60;44.80
7494;DHT22;3788;49.902;8.590;2022-08-30T10:27:05;29.60;44.80
7494;DHT22;3788;49.902;8.590;2022-08-30T10:29:38;29.60;44.50
7494;DHT22;3788;49.902;8.590;2022-08-30T10:32:14;29.50;44.70
7494;DHT22;3788;49.902;8.590;2022-08-30T10:34:47;29.50;44.40
7494;DHT22;3788;49.902;8.590;2022-08-30T10:37:18;29.60;44.10
7494;DHT22;3788;49.902;8.590;2022-08-30T10:39:49;29.50;43.60
7494;DHT22;3788;49.902;8.590;2022-08-30T10:42:18;29.40;44.00
7494;DHT22;3788;49.902;8.590;2022-08-30T10:44:50;29.40;44.10
7494;DHT22;3788;49.902;8.590;2022-08-30T10:47:28;29.50;44.30
7494;DHT22;3788;49.902;8.590;2022-08-30T10:50:08;29.60;44.40
7494;DHT22;3788;49.902;8.590;2022-08-30T10:52:41;29.50;44.20
7494;DHT22;3788;49.902;8.590;2022-08-30T10:55:14;29.50;44.40
7494;DHT22;3788;49.902;8.590;2022-08-30T10:57:41;29.40;44.40
7494;DHT22;3788;49.902;8.590;2022-08-30T11:00:12;29.40;44.40
7494;DHT22;3788;49.902;8.590;2022-08-30T11:03:14;29.50;44.40
7494;DHT22;3788;49.902;8.590;2022-08-30T11:05:59;29.60;44.00
7494;DHT22;3788;49.902;8.590;2022-08-30T11:08:43;29.60;44.00
7494;DHT22;3788;49.902;8.590;2022-08-30T11:11:16;29.60;43.80
7494;DHT22;3788;49.902;8.590;2022-08-30T11:13:46;29.50;43.60
7494;DHT22;3788;49.902;8.590;2022-08-30T11:16:15;29.60;43.90
7494;DHT22;3788;49.902;8.590;2022-08-30T11:18:45;29.60;44.00
7494;DHT22;3788;49.902;8.590;2022-08-30T11:21:20;29.60;43.90
7494;DHT22;3788;49.902;8.590;2022-08-30T11:24:00;29.60;43.80
7494;DHT22;3788;49.902;8.590;2022-08-30T11:26:49;29.50;43.40
7494;DHT22;3788;49.902;8.590;2022-08-30T11:29:43;29.50;43.40
7494;DHT22;3788;49.902;8.590;2022-08-30T11:35:39;29.20;43.10
7494;DHT22;3788;49.902;8.590;2022-08-30T11:38:16;29.10;43.20
7494;DHT22;3788;49.902;8.590;2022-08-30T11:40:49;29.00;43.20
7494;DHT22;3788;49.902;8.590;2022-08-30T11:43:51;29.00;43.10
7494;DHT22;3788;49.902;8.590;2022-08-30T11:46:35;28.90;42.50
7494;DHT22;3788;49.902;8.590;2022-08-30T11:49:25;28.90;42.40
7494;DHT22;3788;49.902;8.590;2022-08-30T11:52:06;28.90;42.50
7494;DHT22;3788;49.902;8.590;2022-08-30T11:54:47;29.00;42.50
7494;DHT22;3788;49.902;8.590;2022-08-30T11:57:21;29.00;42.50
7494;DHT22;3788;49.902;8.590;2022-08-30T12:00:03;29.00;42.10
7494;DHT22;3788;49.902;8.590;2022-08-30T12:02:49;28.90;42.40
7494;DHT22;3788;49.902;8.590;2022-08-30T12:08:48;28.90;42.70
7494;DHT22;3788;49.902;8.590;2022-08-30T12:14:44;28.90;43.20
7494;DHT22;3788;49.902;8.590;2022-08-30T12:17:49;29.00;43.10
7494;DHT22;3788;49.902;8.590;2022-08-30T12:20:39;29.00;42.10
7494;DHT22;3788;49.902;8.590;2022-08-30T12:23:17;29.00;42.00
7494;DHT22;3788;49.902;8.590;2022-08-30T12:25:44;28.90;42.50
7494;DHT22;3788;49.902;8.590;2022-08-30T12:28:15;28.80;42.50
7494;DHT22;3788;49.902;8.590;2022-08-30T12:30:43;28.70;42.60
7494;DHT22;3788;49.902;8.590;2022-08-30T12:33:12;28.70;42.90
7494;DHT22;3788;49.902;8.590;2022-08-30T12:35:41;28.70;42.90
7494;DHT22;3788;49.902;8.590;2022-08-30T12:38:13;28.70;43.10
7494;DHT22;3788;49.902;8.590;2022-08-30T12:40:51;28.70;43.50
7494;DHT22;3788;49.902;8.590;2022-08-30T12:43:27;28.60;43.00
7494;DHT22;3788;49.902;8.590;2022-08-30T12:45:58;28.70;42.40
7494;DHT22;3788;49.902;8.590;2022-08-30T12:48:28;28.70;42.30
7494;DHT22;3788;49.902;8.590;2022-08-30T12:50:58;28.70;42.40
7494;DHT22;3788;49.902;8.590;2022-08-30T12:53:28;28.70;42.40
7494;DHT22;3788;49.902;8.590;2022-08-30T12:55:59;28.70;42.90
7494;DHT22;3788;49.902;8.590;2022-08-30T12:58:36;28.70;42.90
7494;DHT22;3788;49.902;8.590;2022-08-30T13:01:23;28.70;42.50
7494;DHT22;3788;49.902;8.590;2022-08-30T13:03:57;28.70;42.20
7494;DHT22;3788;49.902;8.590;2022-08-30T13:06:40;28.80;42.00
7494;DHT22;3788;49.902;8.590;2022-08-30T13:09:10;28.90;42.10
7494;DHT22;3788;49.902;8.590;2022-08-30T13:14:30;28.90;42.50
7494;DHT22;3788;49.902;8.590;2022-08-30T13:17:23;28.80;42.70
7494;DHT22;3788;49.902;8.590;2022-08-30T13:20:02;28.70;42.50
7494;DHT22;3788;49.902;8.590;2022-08-30T13:22:31;28.70;42.50
7494;DHT22;3788;49.902;8.590;2022-08-30T13:24:58;28.70;42.40
7494;DHT22;3788;49.902;8.590;2022-08-30T13:27:27;28.70;42.20
7494;DHT22;3788;49.902;8.590;2022-08-30T13:29:55;28.70;42.10
7494;DHT22;3788;49.902;8.590;2022-08-30T13:32:24;28.80;42.00
7494;DHT22;3788;49.902;8.590;2022-08-30T13:34:50;28.90;41.80
7494;DHT22;3788;49.902;8.590;2022-08-30T13:37:19;28.90;41.70
7494;DHT22;3788;49.902;8.590;2022-08-30T13:39:47;29.00;41.80
7494;DHT22;3788;49.902;8.590;2022-08-30T13:42:14;29.00;41.40
7494;DHT22;3788;49.902;8.590;2022-08-30T13:44:41;29.00;41.20
7494;DHT22;3788;49.902;8.590;2022-08-30T13:47:08;29.00;41.30
7494;DHT22;3788;49.902;8.590;2022-08-30T13:49:37;29.00;41.80
7494;DHT22;3788;49.902;8.590;2022-08-30T13:52:07;29.00;41.30
7494;DHT22;3788;49.902;8.590;2022-08-30T13:54:34;29.00;41.30
7494;DHT22;3788;49.902;8.590;2022-08-30T13:57:01;29.10;41.60
7494;DHT22;3788;49.902;8.590;2022-08-30T13:59:27;29.10;42.20
7494;DHT22;3788;49.902;8.590;2022-08-30T14:01:58;29.10;42.80
7494;DHT22;3788;49.902;8.590;2022-08-30T14:04:26;29.20;43.20
7494;DHT22;3788;49.902;8.590;2022-08-30T14:06:54;29.30;42.80
7494;DHT22;3788;49.902;8.590;2022-08-30T14:09:20;29.30;41.80
7494;DHT22;3788;49.902;8.590;2022-08-30T14:11:47;29.30;41.50
7494;DHT22;3788;49.902;8.590;2022-08-30T14:14:15;29.30;41.00
7494;DHT22;3788;49.902;8.590;2022-08-30T14:16:43;29.40;40.80
7494;DHT22;3788;49.902;8.590;2022-08-30T14:19:11;29.40;40.60
7494;DHT22;3788;49.902;8.590;2022-08-30T14:21:38;29.50;40.60
7494;DHT22;3788;49.902;8.590;2022-08-30T14:24:07;29.50;40.90
7494;DHT22;3788;49.902;8.590;2022-08-30T14:26:36;29.40;40.90
7494;DHT22;3788;49.902;8.590;2022-08-30T14:29:06;29.40;41.40
7494;DHT22;3788;49.902;8.590;2022-08-30T14:31:33;29.30;41.70
7494;DHT22;3788;49.902;8.590;2022-08-30T14:34:01;29.30;41.80
7494;DHT22;3788;49.902;8.590;2022-08-30T14:36:28;29.30;42.10
7494;DHT22;3788;49.902;8.590;2022-08-30T14:38:55;29.20;42.20
7494;DHT22;3788;49.902;8.590;2022-08-30T14:41:24;29.10;42.00
7494;DHT22;3788;49.902;8.590;2022-08-30T14:43:50;29.10;41.80
7494;DHT22;3788;49.902;8.590;2022-08-30T14:46:17;29.00;41.60
7494;DHT22;3788;49.902;8.590;2022-08-30T14:48:44;29.00;41.80
7494;DHT22;3788;49.902;8.590;2022-08-30T14:51:12;29.00;42.00
7494;DHT22;3788;49.902;8.590;2022-08-30T14:53:39;29.10;41.90
7494;DHT22;3788;49.902;8.590;2022-08-30T14:56:07;29.20;41.70
7494;DHT22;3788;49.902;8.590;2022-08-30T14:58:35;29.30;41.60
7494;DHT22;3788;49.902;8.590;2022-08-30T15:01:05;29.30;41.50
7494;DHT22;3788;49.902;8.590;2022-08-30T15:03:33;29.20;41.40
7494;DHT22;3788;49.902;8.590;2022-08-30T15:06:00;29.10;41.50
7494;DHT22;3788;49.902;8.590;2022-08-30T15:08:26;29.10;41.60
7494;DHT22;3788;49.902;8.590;2022-08-30T15:10:53;29.00;41.70
7494;DHT22;3788;49.902;8.590;2022-08-30T15:13:20;29.00;41.90
7494;DHT22;3788;49.902;8.590;2022-08-30T15:15:48;28.90;41.70
7494;DHT22;3788;49.902;8.590;2022-08-30T15:18:15;28.90;41.60
7494;DHT22;3788;49.902;8.590;2022-08-30T15:20:44;28.80;41.60
7494;DHT22;3788;49.902;8.590;2022-08-30T15:23:11;28.80;41.70
7494;DHT22;3788;49.902;8.590;2022-08-30T15:25:38;28.80;41.80
7494;DHT22;3788;49.902;8.590;2022-08-30T15:28:05;28.80;41.80
7494;DHT22;3788;49.902;8.590;2022-08-30T15:30:31;28.70;41.80
7494;DHT22;3788;49.902;8.590;2022-08-30T15:32:59;28.70;41.80
7494;DHT22;3788;49.902;8.590;2022-08-30T15:35:26;28.70;42.50
7494;DHT22;3788;49.902;8.590;2022-08-30T15:37:53;28.70;41.90
7494;DHT22;3788;49.902;8.590;2022-08-30T15:40:19;28.70;41.70
7494;DHT22;3788;49.902;8.590;2022-08-30T15:42:46;28.70;41.20
7494;DHT22;3788;49.902;8.590;2022-08-30T15:45:13;28.70;41.10
7494;DHT22;3788;49.902;8.590;2022-08-30T15:47:39;28.70;41.30
7494;DHT22;3788;49.902;8.590;2022-08-30T15:50:08;28.60;41.50
7494;DHT22;3788;49.902;8.590;2022-08-30T15:52:35;28.60;41.60
7494;DHT22;3788;49.902;8.590;2022-08-30T15:55:01;28.60;41.60
7494;DHT22;3788;49.902;8.590;2022-08-30T15:57:28;28.50;41.70
7494;DHT22;3788;49.902;8.590;2022-08-30T15:59:55;28.50;41.80
7494;DHT22;3788;49.902;8.590;2022-08-30T16:02:21;28.50;41.80
7494;DHT22;3788;49.902;8.590;2022-08-30T16:04:48;28.50;41.80
7494;DHT22;3788;49.902;8.590;2022-08-30T16:07:16;28.50;41.70
7494;DHT22;3788;49.902;8.590;2022-08-30T16:09:42;28.40;41.80
7494;DHT22;3788;49.902;8.590;2022-08-30T16:12:09;28.40;42.00
7494;DHT22;3788;49.902;8.590;2022-08-30T16:14:36;28.30;42.10
7494;DHT22;3788;49.902;8.590;2022-08-30T16:17:03;28.30;42.40
7494;DHT22;3788;49.902;8.590;2022-08-30T16:19:30;28.30;42.50
7494;DHT22;3788;49.902;8.590;2022-08-30T16:21:57;28.30;42.20
7494;DHT22;3788;49.902;8.590;2022-08-30T16:24:25;28.30;42.20
7494;DHT22;3788;49.902;8.590;2022-08-30T16:26:52;28.20;42.30
7494;DHT22;3788;49.902;8.590;2022-08-30T16:29:19;28.30;42.20
7494;DHT22;3788;49.902;8.590;2022-08-30T16:31:46;28.20;42.30
7494;DHT22;3788;49.902;8.590;2022-08-30T16:34:16;28.20;42.50